Time;durP1;ratioP1;P1;durP2;ratioP2;P2;SDS_P1;SDS_P2;PMS_P1;PMS_P2;Temp;Humidity;BMP_temperature;BMP_pressure;BME280_temperature;BME280_humidity;BME280_pressure;Samples;Min_cycle;Max_cycle;Signal;HPM_P1;HPM_P2
2023/08/15 00:01:54;;;;;;;15.60;5.72;;;27.60;80.00;;;;;;5044498;28;20056;-56
2023/08/15 00:04:20;;;;;;;19.05;5.95;;;27.60;80.00;;;;;;5045779;28;20053;-55
2023/08/15 00:06:45;;;;;;;13.23;5.45;;;27.50;80.10;;;;;;5027722;28;20041;-56
2023/08/15 00:09:11;;;;;;;12.35;5.40;;;27.50;80.10;;;;;;5045802;28;20104;-56
2023/08/15 00:11:36;;;;;;;14.95;5.45;;;27.50;80.20;;;;;;5045435;28;20040;-56
2023/08/15 00:14:02;;;;;;;13.15;5.60;;;27.50;80.30;;;;;;5027724;28;20450;-56
2023/08/15 00:16:28;;;;;;;12.80;5.70;;;27.50;80.30;;;;;;5045434;28;20029;-56
2023/08/15 00:18:53;;;;;;;9.35;5.10;;;27.50;80.40;;;;;;5045378;28;20033;-56
2023/08/15 00:21:19;;;;;;;16.10;5.68;;;27.50;80.50;;;;;;5045299;28;20026;-56
2023/08/15 00:23:44;;;;;;;12.65;5.25;;;27.40;80.50;;;;;;5027461;28;20063;-56
2023/08/15 00:26:10;;;;;;;12.00;5.75;;;27.40;80.60;;;;;;5044116;28;20025;-56
2023/08/15 00:28:35;;;;;;;11.05;5.85;;;27.40;80.70;;;;;;5044024;28;20047;-56
2023/08/15 00:31:01;;;;;;;13.30;6.15;;;27.40;80.80;;;;;;5045463;28;20045;-56
2023/08/15 00:33:26;;;;;;;10.52;6.03;;;27.40;80.80;;;;;;5043782;28;20125;-56
2023/08/15 00:35:52;;;;;;;14.15;6.57;;;27.40;81.00;;;;;;5045400;28;20037;-56
2023/08/15 00:38:17;;;;;;;12.98;5.65;;;27.40;81.10;;;;;;5045242;28;20111;-55
2023/08/15 00:40:43;;;;;;;9.45;5.30;;;27.30;81.00;;;;;;5043267;28;20037;-56
2023/08/15 00:43:10;;;;;;;11.23;5.70;;;27.30;81.00;;;;;;5043607;28;20036;-56
2023/08/15 00:45:37;;;;;;;8.20;5.93;;;27.30;81.10;;;;;;5043901;28;20087;-56
2023/08/15 00:48:03;;;;;;;10.80;5.68;;;27.30;81.20;;;;;;5043649;28;20049;-56
2023/08/15 00:50:28;;;;;;;13.85;5.63;;;27.30;81.10;;;;;;5027292;28;20036;-56
2023/08/15 00:52:54;;;;;;;13.27;5.75;;;27.30;81.20;;;;;;5043396;28;20029;-56
2023/08/15 00:55:20;;;;;;;14.40;6.10;;;27.30;81.20;;;;;;5027460;28;20075;-56
2023/08/15 00:57:45;;;;;;;7.82;5.00;;;27.20;81.20;;;;;;5011411;28;20056;-56
2023/08/15 01:00:11;;;;;;;8.88;5.93;;;27.20;81.30;;;;;;5043555;28;20045;-56
2023/08/15 01:02:38;;;;;;;10.55;5.28;;;27.20;81.40;;;;;;5043420;28;20056;-56
2023/08/15 01:05:05;;;;;;;10.10;5.32;;;27.20;81.50;;;;;;5043480;28;20051;-56
2023/08/15 01:07:30;;;;;;;16.40;5.80;;;27.20;81.50;;;;;;5026838;28;20037;-56
2023/08/15 01:09:56;;;;;;;10.80;5.78;;;27.10;81.50;;;;;;5044952;28;20087;-56
2023/08/15 01:12:32;;;;;;;9.40;5.53;;;27.10;81.60;;;;;;5026759;28;20029;-56
2023/08/15 01:15:00;;;;;;;11.95;5.22;;;27.10;81.60;;;;;;5044555;28;20081;-56
2023/08/15 01:17:33;;;;;;;11.13;5.50;;;27.10;81.60;;;;;;5027122;28;20021;-56
2023/08/15 01:19:58;;;;;;;10.02;5.32;;;27.10;81.60;;;;;;5010632;28;20029;-56
2023/08/15 01:22:28;;;;;;;13.70;5.20;;;27.00;81.60;;;;;;5026817;28;20095;-56
2023/08/15 01:24:53;;;;;;;8.40;5.00;;;27.00;81.50;;;;;;5044820;28;20037;-56
2023/08/15 01:27:19;;;;;;;9.88;4.78;;;27.00;81.60;;;;;;5026553;28;20053;-56
2023/08/15 01:29:44;;;;;;;15.13;5.53;;;27.00;81.60;;;;;;5026787;28;20037;-56
2023/08/15 01:32:17;;;;;;;10.75;4.60;;;27.00;82.30;;;;;;5044919;28;20022;-55
2023/08/15 01:34:46;;;;;;;11.90;5.55;;;27.00;81.70;;;;;;5043119;28;20048;-56
2023/08/15 01:37:20;;;;;;;9.35;4.38;;;27.00;81.60;;;;;;5027356;28;20048;-56
2023/08/15 01:39:47;;;;;;;9.77;5.50;;;27.00;81.60;;;;;;5027501;28;20523;-56
2023/08/15 01:42:13;;;;;;;6.55;4.80;;;26.90;81.50;;;;;;5010405;28;20055;-56
2023/08/15 01:44:38;;;;;;;6.95;5.22;;;26.90;81.60;;;;;;5026883;28;20124;-56
2023/08/15 01:47:04;;;;;;;6.55;5.15;;;26.90;81.60;;;;;;5010220;28;20095;-56
2023/08/15 01:49:29;;;;;;;5.53;4.43;;;26.80;81.40;;;;;;5044536;28;20417;-56
2023/08/15 01:51:57;;;;;;;10.45;4.80;;;26.80;81.50;;;;;;5043307;28;20512;-56
2023/08/15 01:54:22;;;;;;;13.95;5.00;;;26.90;81.60;;;;;;5048101;28;20409;-56
2023/08/15 01:56:48;;;;;;;7.97;4.47;;;26.90;81.60;;;;;;5048260;28;20022;-56
2023/08/15 01:59:13;;;;;;;7.65;4.55;;;26.80;81.50;;;;;;5030424;28;20053;-56
2023/08/15 02:01:39;;;;;;;8.38;4.85;;;26.80;81.50;;;;;;5030037;28;20547;-56
2023/08/15 02:04:04;;;;;;;8.65;5.00;;;26.80;81.50;;;;;;5030521;28;20030;-56
2023/08/15 02:06:30;;;;;;;10.27;4.75;;;26.80;81.60;;;;;;5047776;28;20044;-56
2023/08/15 02:08:55;;;;;;;10.27;5.20;;;26.80;81.60;;;;;;5048332;28;20400;-56
2023/08/15 02:11:21;;;;;;;7.30;4.78;;;26.70;81.50;;;;;;5030027;28;20029;-56
2023/08/15 02:13:47;;;;;;;11.23;4.60;;;26.70;81.50;;;;;;5046145;28;20409;-56
2023/08/15 02:16:12;;;;;;;7.63;4.55;;;26.70;81.50;;;;;;5046583;28;20032;-56
2023/08/15 02:18:38;;;;;;;10.85;4.97;;;26.70;81.50;;;;;;5030037;28;20072;-56
2023/08/15 02:21:03;;;;;;;8.68;5.20;;;26.70;81.50;;;;;;5046352;28;20044;-56
2023/08/15 02:23:29;;;;;;;8.07;4.82;;;26.70;81.50;;;;;;5046383;28;20021;-56
2023/08/15 02:25:55;;;;;;;8.20;5.20;;;26.70;81.50;;;;;;5047756;28;20068;-56
2023/08/15 02:28:20;;;;;;;7.20;4.70;;;26.70;81.50;;;;;;5047796;28;20029;-56
2023/08/15 02:30:46;;;;;;;6.38;4.30;;;26.70;81.50;;;;;;5047889;28;20059;-56
2023/08/15 02:33:11;;;;;;;6.00;4.68;;;26.70;81.50;;;;;;5047736;28;20025;-56
2023/08/15 02:35:41;;;;;;;7.32;4.10;;;26.60;81.50;;;;;;5046253;28;20033;-56
2023/08/15 02:38:06;;;;;;;6.25;4.22;;;26.60;81.40;;;;;;5046322;28;20436;-56
2023/08/15 02:40:32;;;;;;;6.82;4.07;;;26.60;81.60;;;;;;5046266;28;20041;-56
2023/08/15 02:42:58;;;;;;;9.50;4.40;;;26.60;81.90;;;;;;5046144;28;20033;-56
2023/08/15 02:45:23;;;;;;;5.88;3.95;;;26.60;81.80;;;;;;5047400;28;20033;-56
2023/08/15 02:47:49;;;;;;;8.60;4.47;;;26.60;81.90;;;;;;5047439;28;20025;-56
2023/08/15 02:50:15;;;;;;;8.00;4.70;;;26.60;82.00;;;;;;5046095;28;20057;-56
2023/08/15 02:52:41;;;;;;;7.93;4.63;;;26.60;81.90;;;;;;5029375;28;20060;-56
2023/08/15 02:55:06;;;;;;;7.80;4.60;;;26.60;81.80;;;;;;5029187;28;20045;-56
2023/08/15 02:57:32;;;;;;;5.38;4.32;;;26.60;81.90;;;;;;5045955;28;20389;-56
2023/08/15 02:59:57;;;;;;;6.63;4.60;;;26.60;81.80;;;;;;5047177;28;20033;-56
2023/08/15 03:02:23;;;;;;;6.22;4.30;;;26.50;81.70;;;;;;5029151;28;20025;-56
2023/08/15 03:04:49;;;;;;;6.80;4.18;;;26.50;81.80;;;;;;5047086;28;20025;-56
2023/08/15 03:07:14;;;;;;;4.95;4.20;;;26.50;81.80;;;;;;5045366;28;20056;-56
2023/08/15 03:09:40;;;;;;;5.18;4.07;;;26.50;81.80;;;;;;5045715;28;20033;-56
2023/08/15 03:12:05;;;;;;;7.47;4.40;;;26.50;81.90;;;;;;5045671;28;20142;-56
2023/08/15 03:14:31;;;;;;;5.82;4.70;;;26.50;82.00;;;;;;5046887;28;20052;-56
2023/08/15 03:16:56;;;;;;;8.43;4.50;;;26.50;82.10;;;;;;5046574;28;20100;-56
2023/08/15 03:19:22;;;;;;;8.45;4.50;;;26.50;82.00;;;;;;5045201;28;20048;-56
2023/08/15 03:21:47;;;;;;;8.13;4.65;;;26.50;82.00;;;;;;5045331;28;20028;-54
2023/08/15 03:24:13;;;;;;;6.43;4.40;;;26.40;82.00;;;;;;5045151;28;20037;-56
2023/08/15 03:26:39;;;;;;;9.80;4.38;;;26.40;82.10;;;;;;5046469;28;20029;-56
2023/08/15 03:29:04;;;;;;;7.68;4.53;;;26.40;82.30;;;;;;5045212;28;20093;-56
2023/08/15 03:31:30;;;;;;;5.68;4.28;;;26.40;82.20;;;;;;5046677;28;20029;-56
2023/08/15 03:33:55;;;;;;;5.72;4.40;;;26.40;82.20;;;;;;5044866;28;20050;-56
2023/08/15 03:36:21;;;;;;;7.68;4.57;;;26.40;82.30;;;;;;5045044;28;20021;-56
2023/08/15 03:38:47;;;;;;;5.45;4.10;;;26.30;82.30;;;;;;5028341;28;20055;-56
2023/08/15 03:41:12;;;;;;;7.70;4.10;;;26.30;82.20;;;;;;5044971;28;20030;-55
2023/08/15 03:43:38;;;;;;;8.95;4.50;;;26.30;82.30;;;;;;5046238;28;20021;-56
2023/08/15 03:46:03;;;;;;;7.97;4.25;;;26.30;82.40;;;;;;5046558;28;20064;-56
2023/08/15 03:48:31;;;;;;;8.00;4.90;;;26.30;82.50;;;;;;5044910;28;20029;-55
2023/08/15 03:50:58;;;;;;;4.53;4.13;;;26.30;82.60;;;;;;5045018;28;20029;-56
2023/08/15 03:53:23;;;;;;;5.47;4.35;;;26.30;82.70;;;;;;5044693;28;20167;-56
2023/08/15 03:55:49;;;;;;;6.93;4.60;;;26.30;82.70;;;;;;5044656;28;20060;-56
2023/08/15 03:58:18;;;;;;;7.80;4.80;;;26.20;82.70;;;;;;5044873;28;20110;-56
2023/08/15 04:00:44;;;;;;;6.78;4.30;;;26.20;82.80;;;;;;5028740;28;20026;-56
2023/08/15 04:03:10;;;;;;;7.68;4.82;;;26.20;82.80;;;;;;5048438;28;20105;-55
2023/08/15 04:05:36;;;;;;;7.63;4.57;;;26.20;82.70;;;;;;5027999;28;20041;-56
2023/08/15 04:08:02;;;;;;;8.98;4.30;;;26.20;82.80;;;;;;5027922;28;20053;-56
2023/08/15 04:10:28;;;;;;;6.25;4.68;;;26.20;83.00;;;;;;5045637;28;20037;-56
2023/08/15 04:12:54;;;;;;;7.38;4.68;;;26.20;83.00;;;;;;5028225;28;20128;-56
2023/08/15 04:15:19;;;;;;;4.95;4.25;;;26.20;83.00;;;;;;5011339;28;20120;-54
2023/08/15 04:17:45;;;;;;;5.88;3.70;;;26.20;83.10;;;;;;5046224;28;20037;-56
2023/08/15 04:20:12;;;;;;;7.15;4.28;;;26.10;84.00;;;;;;5044610;28;20053;-55
2023/08/15 04:22:38;;;;;;;10.02;4.53;;;26.10;83.30;;;;;;5028702;28;20041;-56
2023/08/15 04:25:09;;;;;;;5.85;4.50;;;26.10;83.20;;;;;;5044211;28;20083;-56
2023/08/15 04:27:38;;;;;;;5.45;4.22;;;26.10;83.10;;;;;;5045191;28;20025;-56
2023/08/15 04:30:04;;;;;;;6.70;3.92;;;26.10;83.20;;;;;;5045621;28;20478;-56
2023/08/15 04:32:30;;;;;;;7.45;4.47;;;26.10;83.20;;;;;;5010953;28;20048;-56
2023/08/15 04:34:56;;;;;;;5.13;4.05;;;26.10;83.20;;;;;;5024346;28;20033;-55
2023/08/15 04:37:21;;;;;;;5.82;3.90;;;26.00;83.20;;;;;;5025029;28;20037;-56
2023/08/15 04:39:47;;;;;;;7.32;3.72;;;26.00;83.20;;;;;;5024210;28;20461;-56
2023/08/15 04:42:12;;;;;;;5.00;3.45;;;26.00;83.20;;;;;;5024160;28;20379;-56
2023/08/15 04:44:38;;;;;;;5.15;3.70;;;26.00;83.20;;;;;;5024036;28;20030;-56
2023/08/15 04:47:04;;;;;;;4.18;3.72;;;26.00;83.20;;;;;;5040242;28;20022;-55
2023/08/15 04:49:29;;;;;;;9.48;3.50;;;26.00;83.30;;;;;;5040419;28;20036;-56
2023/08/15 04:51:55;;;;;;;5.00;3.60;;;26.00;83.30;;;;;;5007445;28;20036;-56
2023/08/15 04:54:20;;;;;;;6.30;3.63;;;26.00;83.30;;;;;;5023919;28;20030;-56
2023/08/15 04:56:46;;;;;;;6.20;3.75;;;26.00;83.80;;;;;;5023992;28;20029;-56
2023/08/15 04:59:12;;;;;;;5.45;3.78;;;26.00;83.20;;;;;;5025166;28;20033;-56
2023/08/15 05:01:37;;;;;;;4.82;3.80;;;26.00;83.20;;;;;;5025132;28;20034;-56
2023/08/15 05:04:03;;;;;;;8.77;3.40;;;26.00;83.20;;;;;;5025299;28;20036;-56
2023/08/15 05:06:29;;;;;;;7.60;3.30;;;26.00;83.20;;;;;;5023627;28;20053;-56
2023/08/15 05:08:54;;;;;;;6.72;3.75;;;25.90;83.10;;;;;;5007375;28;20065;-56
2023/08/15 05:11:20;;;;;;;7.82;3.95;;;25.90;83.10;;;;;;5025096;28;20205;-56
2023/08/15 05:13:45;;;;;;;5.38;3.10;;;25.90;83.10;;;;;;5025056;28;20034;-56
2023/08/15 05:16:11;;;;;;;3.75;3.28;;;25.90;83.10;;;;;;5023667;28;20040;-56
2023/08/15 05:18:36;;;;;;;5.32;3.30;;;25.90;83.20;;;;;;5024966;28;20038;-56
2023/08/15 05:21:02;;;;;;;7.05;3.78;;;25.80;83.10;;;;;;5024921;28;20061;-56
2023/08/15 05:23:27;;;;;;;4.65;3.35;;;25.90;83.10;;;;;;5023572;28;20033;-56
2023/08/15 05:25:53;;;;;;;6.88;3.10;;;25.80;83.10;;;;;;5039803;28;20030;-56
2023/08/15 05:28:18;;;;;;;4.30;3.33;;;25.80;83.10;;;;;;5027373;28;20026;-56
2023/08/15 05:30:44;;;;;;;5.50;3.40;;;25.80;83.10;;;;;;5028946;28;20038;-56
2023/08/15 05:33:10;;;;;;;5.10;3.42;;;25.80;83.10;;;;;;5027209;28;20065;-56
2023/08/15 05:35:35;;;;;;;4.15;3.15;;;25.90;83.20;;;;;;5027458;28;20088;-56
2023/08/15 05:38:01;;;;;;;8.75;3.58;;;25.80;83.10;;;;;;5027207;28;20500;-56
2023/08/15 05:40:26;;;;;;;5.47;3.45;;;25.80;83.30;;;;;;5028529;28;20022;-56
2023/08/15 05:42:52;;;;;;;7.82;3.75;;;25.80;83.50;;;;;;5027574;28;20025;-56
2023/08/15 05:45:17;;;;;;;5.20;3.75;;;25.80;83.60;;;;;;5027268;28;20034;-56
2023/08/15 05:47:43;;;;;;;7.43;3.70;;;25.80;84.00;;;;;;5027135;28;20038;-56
2023/08/15 05:50:09;;;;;;;9.82;3.70;;;25.80;84.30;;;;;;5027248;28;20371;-56
2023/08/15 05:52:34;;;;;;;6.50;3.70;;;25.70;84.30;;;;;;5028376;28;20052;-56
2023/08/15 05:55:00;;;;;;;4.88;3.25;;;25.70;84.60;;;;;;5028187;28;20048;-56
2023/08/15 05:57:26;;;;;;;8.57;3.67;;;25.60;84.80;;;;;;5028366;28;20018;-56
2023/08/15 05:59:51;;;;;;;9.98;3.72;;;25.60;85.00;;;;;;5026891;28;20597;-56
2023/08/15 06:02:18;;;;;;;10.10;4.03;;;25.60;85.10;;;;;;5028095;28;20026;-56
2023/08/15 06:04:43;;;;;;;10.10;3.85;;;25.60;85.00;;;;;;5026676;28;20470;-56
2023/08/15 06:07:09;;;;;;;10.60;3.90;;;25.60;85.10;;;;;;5023708;28;20042;-56
2023/08/15 06:09:35;;;;;;;10.32;4.00;;;25.60;85.10;;;;;;5026775;28;20045;-56
2023/08/15 06:12:00;;;;;;;9.18;3.78;;;25.60;85.10;;;;;;5023303;28;20029;-56
2023/08/15 06:14:26;;;;;;;7.88;3.88;;;25.60;85.10;;;;;;5025388;28;20034;-56
2023/08/15 06:16:51;;;;;;;8.05;3.88;;;25.60;85.00;;;;;;5026324;28;20093;-56
2023/08/15 06:19:18;;;;;;;6.43;3.97;;;25.60;85.00;;;;;;5023980;28;20030;-56
2023/08/15 06:21:43;;;;;;;6.07;3.53;;;25.60;85.00;;;;;;5026589;28;20026;-56
2023/08/15 06:24:12;;;;;;;14.65;4.10;;;25.60;85.00;;;;;;5027697;28;20394;-56
2023/08/15 06:26:38;;;;;;;11.65;4.53;;;25.60;85.20;;;;;;5025171;28;20030;-56
2023/08/15 06:29:06;;;;;;;8.35;4.00;;;25.60;85.20;;;;;;5023073;28;20080;-56
2023/08/15 06:31:32;;;;;;;9.77;4.40;;;25.60;85.20;;;;;;5018554;28;20030;-56
2023/08/15 06:33:58;;;;;;;10.60;3.78;;;25.60;85.20;;;;;;5011079;28;20090;-56
2023/08/15 06:36:23;;;;;;;9.18;4.22;;;25.60;85.30;;;;;;5018065;28;20038;-56
2023/08/15 06:38:50;;;;;;;13.57;4.63;;;25.60;85.40;;;;;;5026047;28;20159;-56
2023/08/15 06:41:16;;;;;;;13.02;3.85;;;25.60;85.90;;;;;;5026405;28;20183;-56
2023/08/15 06:43:41;;;;;;;12.95;4.45;;;25.60;85.80;;;;;;5024817;28;20029;-56
2023/08/15 06:46:07;;;;;;;13.77;3.75;;;25.60;85.80;;;;;;5021162;28;20038;-56
2023/08/15 06:48:32;;;;;;;9.70;4.20;;;25.60;86.00;;;;;;5016969;28;20554;-56
2023/08/15 06:50:58;;;;;;;9.20;4.03;;;25.60;86.40;;;;;;5015016;28;20026;-56
2023/08/15 06:53:24;;;;;;;12.80;4.85;;;25.60;86.00;;;;;;5023221;28;20494;-56
2023/08/15 06:55:49;;;;;;;9.82;4.25;;;25.50;86.50;;;;;;5025098;28;20398;-56
2023/08/15 06:58:16;;;;;;;13.82;4.47;;;25.50;86.20;;;;;;5027508;28;20450;-55
2023/08/15 07:00:43;;;;;;;12.55;4.80;;;25.50;86.20;;;;;;5009303;28;20022;-54
2023/08/15 07:03:08;;;;;;;15.98;4.72;;;25.50;86.40;;;;;;5020590;28;20030;-55
2023/08/15 07:05:34;;;;;;;13.30;4.97;;;25.60;87.30;;;;;;5015084;28;20034;-55
2023/08/15 07:08:00;;;;;;;18.58;4.93;;;25.60;86.80;;;;;;5025973;28;20552;-56
2023/08/15 07:10:25;;;;;;;22.65;4.82;;;25.60;86.80;;;;;;5024962;28;20469;-56
2023/08/15 07:12:51;;;;;;;13.65;4.72;;;25.60;86.80;;;;;;5022771;28;20046;-56
2023/08/15 07:15:16;;;;;;;18.50;5.10;;;25.60;86.80;;;;;;5021695;28;20120;-56
2023/08/15 07:17:42;;;;;;;19.52;5.95;;;25.60;86.90;;;;;;5024757;28;20461;-56
2023/08/15 07:20:09;;;;;;;18.75;6.50;;;25.60;87.00;;;;;;5024117;28;20494;-56
2023/08/15 07:22:35;;;;;;;36.80;7.35;;;25.60;87.20;;;;;;5022143;28;20044;-56
2023/08/15 07:25:01;;;;;;;31.60;7.35;;;25.60;87.40;;;;;;5022044;28;20032;-56
2023/08/15 07:27:27;;;;;;;33.03;7.93;;;25.60;87.60;;;;;;5023141;28;20085;-56
2023/08/15 07:29:52;;;;;;;40.00;8.88;;;25.60;87.70;;;;;;5020006;28;20033;-56
2023/08/15 07:32:18;;;;;;;41.53;8.80;;;25.70;88.00;;;;;;5025203;28;20116;-56
2023/08/15 07:34:43;;;;;;;40.63;8.80;;;25.60;88.70;;;;;;5019189;28;20129;-56
2023/08/15 07:37:10;;;;;;;58.92;10.70;;;25.60;88.20;;;;;;5021836;28;20036;-56
2023/08/15 07:39:35;;;;;;;44.40;10.57;;;25.70;88.40;;;;;;5022033;28;20029;-56
2023/08/15 07:42:01;;;;;;;58.85;10.98;;;25.70;88.40;;;;;;5021108;28;20076;-56
2023/08/15 07:44:27;;;;;;;46.00;11.70;;;25.70;88.40;;;;;;5007840;28;20446;-56
2023/08/15 07:46:53;;;;;;;64.63;11.85;;;25.70;88.70;;;;;;5018742;28;20029;-56
2023/08/15 07:49:18;;;;;;;51.30;13.05;;;25.70;88.60;;;;;;5018647;28;20041;-56
2023/08/15 07:51:44;;;;;;;94.80;14.98;;;25.70;88.90;;;;;;5023619;28;20025;-56
2023/08/15 07:54:10;;;;;;;68.07;14.57;;;25.70;89.80;;;;;;5012433;28;20129;-55
2023/08/15 07:56:36;;;;;;;97.40;16.63;;;25.70;89.70;;;;;;5022651;28;20139;-56
2023/08/15 07:59:03;;;;;;;78.63;15.55;;;25.70;89.80;;;;;;5018324;28;20423;-56
2023/08/15 08:01:28;;;;;;;67.70;12.85;;;25.70;90.10;;;;;;5022817;28;20041;-56
2023/08/15 08:03:55;;;;;;;63.67;13.25;;;25.80;89.80;;;;;;5018304;28;20025;-56
2023/08/15 08:06:21;;;;;;;66.13;14.65;;;25.70;89.40;;;;;;5017631;28;20554;-55
2023/08/15 08:08:47;;;;;;;63.08;14.48;;;25.70;89.30;;;;;;5036605;28;20064;-56
2023/08/15 08:11:13;;;;;;;74.00;15.27;;;25.70;89.40;;;;;;5023282;28;20049;-52
2023/08/15 08:13:38;;;;;;;83.15;15.05;;;25.70;89.50;;;;;;5023712;28;20014;-56
2023/08/15 08:16:04;;;;;;;62.88;14.20;;;25.70;89.50;;;;;;5024055;28;20033;-56
2023/08/15 08:18:30;;;;;;;64.78;13.38;;;25.70;89.50;;;;;;5021252;28;20378;-56
2023/08/15 08:20:55;;;;;;;64.88;13.32;;;25.80;89.60;;;;;;5044025;28;20093;-56
2023/08/15 08:23:21;;;;;;;75.05;14.30;;;25.70;89.40;;;;;;5030447;28;20089;-56
2023/08/15 08:25:46;;;;;;;75.03;12.63;;;25.80;89.40;;;;;;5029082;28;20026;-56
2023/08/15 08:28:13;;;;;;;82.75;14.77;;;25.80;89.30;;;;;;5018003;28;20036;-56
2023/08/15 08:30:42;;;;;;;72.55;13.65;;;25.80;89.50;;;;;;5020762;28;20117;-56
2023/08/15 08:33:09;;;;;;;73.50;13.88;;;25.80;89.70;;;;;;5022305;28;20030;-56
2023/08/15 08:35:35;;;;;;;91.45;14.75;;;25.80;89.60;;;;;;4986743;28;20123;-56
2023/08/15 08:38:00;;;;;;;71.57;13.95;;;25.80;89.70;;;;;;5022604;28;20049;-56
2023/08/15 08:40:27;;;;;;;73.38;13.43;;;25.80;89.60;;;;;;5022368;28;20034;-56
2023/08/15 08:42:52;;;;;;;60.03;13.43;;;25.90;89.50;;;;;;5021320;28;20552;-56
2023/08/15 08:45:18;;;;;;;60.88;12.10;;;25.80;89.60;;;;;;5021577;28;20065;-56
2023/08/15 08:47:43;;;;;;;60.42;12.02;;;25.90;89.50;;;;;;5023336;28;20033;-56
2023/08/15 08:50:09;;;;;;;58.15;12.07;;;25.90;89.50;;;;;;5020093;28;20030;-56
2023/08/15 08:52:40;;;;;;;54.75;12.07;;;25.90;89.20;;;;;;5004660;28;20030;-56
2023/08/15 08:55:07;;;;;;;64.32;11.73;;;25.90;89.00;;;;;;5023560;28;20064;-56
2023/08/15 08:57:33;;;;;;;64.60;11.30;;;25.90;88.80;;;;;;4987485;28;20057;-56
2023/08/15 08:59:58;;;;;;;69.55;11.63;;;25.90;88.40;;;;;;5019677;28;20450;-55
2023/08/15 09:02:24;;;;;;;53.22;11.43;;;25.90;88.40;;;;;;5001240;28;20394;-55
2023/08/15 09:04:50;;;;;;;57.47;12.18;;;26.00;88.40;;;;;;5020984;28;20026;-56
2023/08/15 09:07:16;;;;;;;51.63;11.60;;;26.00;88.10;;;;;;5021538;28;20033;-56
2023/08/15 09:09:42;;;;;;;58.83;11.32;;;26.00;87.90;;;;;;5026231;28;20129;-56
2023/08/15 09:12:07;;;;;;;77.85;11.70;;;26.00;87.80;;;;;;5023439;28;20041;-56
2023/08/15 09:14:41;;;;;;;70.53;10.88;;;26.00;87.30;;;;;;5023137;28;20060;-56
2023/08/15 09:17:07;;;;;;;58.95;10.68;;;26.10;87.00;;;;;;5004176;28;20544;-55
2023/08/15 09:19:39;;;;;;;69.75;12.15;;;26.10;86.80;;;;;;5022424;28;20112;-56
2023/08/15 09:22:04;;;;;;;70.82;11.85;;;26.10;86.80;;;;;;5007136;28;20093;-56
2023/08/15 09:24:30;;;;;;;59.78;11.25;;;26.10;86.70;;;;;;5001022;28;20034;-56
2023/08/15 09:26:55;;;;;;;60.03;10.88;;;26.20;86.70;;;;;;5015396;28;20040;-56
2023/08/15 09:29:22;;;;;;;68.28;11.35;;;26.20;86.30;;;;;;5026002;28;20040;-55
2023/08/15 09:31:49;;;;;;;81.97;12.88;;;26.20;86.40;;;;;;5020939;28;20026;-56
2023/08/15 09:34:14;;;;;;;66.35;12.15;;;26.20;86.40;;;;;;5020468;28;20081;-56
2023/08/15 09:36:40;;;;;;;78.95;12.60;;;26.30;86.50;;;;;;5022771;28;20034;-56
2023/08/15 09:39:08;;;;;;;79.68;11.38;;;26.30;86.10;;;;;;5020578;28;20544;-56
2023/08/15 09:41:39;;;;;;;75.22;12.48;;;26.30;85.70;;;;;;5021778;28;20040;-56
2023/08/15 09:44:05;;;;;;;103.13;13.48;;;26.30;85.00;;;;;;5018657;28;20064;-56
2023/08/15 09:46:31;;;;;;;102.60;15.80;;;26.30;84.90;;;;;;5020654;28;20074;-56
2023/08/15 09:48:56;;;;;;;92.50;14.10;;;26.40;85.00;;;;;;5022084;28;20022;-55
2023/08/15 09:51:22;;;;;;;75.35;13.38;;;26.40;84.60;;;;;;5023289;28;20056;-56
2023/08/15 09:53:47;;;;;;;83.28;12.52;;;26.40;84.40;;;;;;4997559;28;20033;-56
2023/08/15 09:56:13;;;;;;;93.32;13.50;;;26.40;84.30;;;;;;5025554;28;20040;-56
2023/08/15 09:58:38;;;;;;;84.07;11.90;;;26.50;84.20;;;;;;5020511;28;20033;-56
2023/08/15 10:01:06;;;;;;;94.40;13.52;;;26.50;83.90;;;;;;5020265;28;20037;-56
2023/08/15 10:03:38;;;;;;;79.75;13.05;;;26.50;83.70;;;;;;5020847;28;20094;-56
2023/08/15 10:06:04;;;;;;;109.10;15.95;;;26.50;83.40;;;;;;5015303;28;20096;-56
2023/08/15 10:08:30;;;;;;;105.97;14.73;;;26.60;83.10;;;;;;5021609;28;20030;-56
2023/08/15 10:10:57;;;;;;;82.95;12.70;;;26.60;83.00;;;;;;5019337;28;20105;-56
2023/08/15 10:13:26;;;;;;;87.57;13.88;;;26.60;82.90;;;;;;5022075;28;20034;-56
2023/08/15 10:15:51;;;;;;;91.28;12.70;;;26.70;82.90;;;;;;5009490;28;20034;-56
2023/08/15 10:18:17;;;;;;;86.65;12.82;;;26.70;82.70;;;;;;5022066;28;20029;-56
2023/08/15 10:20:43;;;;;;;86.05;12.68;;;26.70;82.40;;;;;;5022544;28;20026;-56
2023/08/15 10:23:09;;;;;;;100.45;12.80;;;26.80;82.30;;;;;;5023030;28;20049;-56
2023/08/15 10:25:40;;;;;;;65.93;11.57;;;26.80;82.20;;;;;;5025507;28;20037;-56
2023/08/15 10:28:10;;;;;;;68.53;11.70;;;26.80;82.10;;;;;;5031107;28;20074;-56
2023/08/15 10:30:45;;;;;;;73.65;12.13;;;26.80;82.10;;;;;;5024811;28;20052;-56
2023/08/15 10:33:11;;;;;;;;;;;26.80;82.00;;;;;;5031032;28;20133;-56
2023/08/15 10:35:37;;;;;;;;;;;26.90;81.90;;;;;;5019278;28;19952;-56
2023/08/15 10:38:12;;;;;;;74.00;11.07;;;26.90;81.80;;;;;;5022698;28;19914;-56
2023/08/15 10:40:41;;;;;;;82.40;11.73;;;26.90;81.60;;;;;;5026735;28;20288;-56
2023/08/15 10:43:09;;;;;;;86.22;12.95;;;27.00;81.40;;;;;;5022975;28;20034;-56
2023/08/15 10:45:36;;;;;;;65.90;11.70;;;27.00;81.40;;;;;;5020006;28;20030;-56
2023/08/15 10:48:02;;;;;;;84.90;13.60;;;27.00;81.30;;;;;;5024502;28;20061;-56
2023/08/15 10:50:27;;;;;;;80.90;12.82;;;27.00;81.10;;;;;;5023163;28;20091;-56
2023/08/15 10:53:05;;;;;;;99.68;14.95;;;27.10;81.10;;;;;;5023736;28;20368;-55
2023/08/15 10:55:35;;;;;;;77.18;12.43;;;27.10;81.00;;;;;;5023649;28;20064;-56
2023/08/15 10:58:09;;;;;;;91.03;13.15;;;27.10;80.40;;;;;;5023483;28;20026;-56
2023/08/15 11:00:36;;;;;;;76.03;12.85;;;27.20;79.90;;;;;;5024932;28;20275;-56
2023/08/15 11:03:02;;;;;;;80.28;12.77;;;27.30;79.80;;;;;;5026659;28;20045;-55
2023/08/15 11:05:27;;;;;;;81.47;12.95;;;27.40;79.90;;;;;;5026904;28;20482;-56
2023/08/15 11:07:55;;;;;;;70.88;11.93;;;27.40;79.50;;;;;;5025924;28;20030;-56
2023/08/15 11:10:22;;;;;;;70.32;11.05;;;27.40;78.80;;;;;;5026635;28;20058;-55
2023/08/15 11:12:48;;;;;;;81.80;12.10;;;27.50;78.20;;;;;;5026261;28;20049;-56
2023/08/15 11:15:17;;;;;;;82.45;11.98;;;27.50;77.80;;;;;;5025280;28;20538;-56
2023/08/15 11:17:46;;;;;;;57.20;9.73;;;27.60;77.80;;;;;;5025369;28;20026;-56
2023/08/15 11:20:11;;;;;;;58.35;10.23;;;27.60;77.50;;;;;;5025530;28;20078;-56
2023/08/15 11:22:37;;;;;;;57.83;9.55;;;27.60;76.80;;;;;;5041349;28;20169;-56
2023/08/15 11:25:04;;;;;;;52.22;9.25;;;27.70;76.70;;;;;;5025330;28;20034;-56
2023/08/15 11:27:29;;;;;;;53.63;9.15;;;27.80;76.60;;;;;;5025175;28;20034;-56
2023/08/15 11:29:58;;;;;;;58.17;9.23;;;27.80;75.90;;;;;;5025267;28;20030;-56
2023/08/15 11:32:24;;;;;;;62.88;9.63;;;27.90;75.40;;;;;;5026571;28;20064;-55
2023/08/15 11:34:50;;;;;;;54.17;8.90;;;28.00;75.00;;;;;;5008872;28;20030;-56
2023/08/15 11:37:16;;;;;;;35.50;7.22;;;28.00;74.90;;;;;;5008905;28;20065;-56
2023/08/15 11:39:42;;;;;;;58.97;9.00;;;28.20;74.40;;;;;;5009061;28;20029;-56
2023/08/15 11:42:07;;;;;;;54.88;8.68;;;28.20;74.20;;;;;;5026384;28;20394;-56
2023/08/15 11:44:33;;;;;;;43.45;8.20;;;28.30;74.10;;;;;;5008607;28;20026;-56
2023/08/15 11:46:58;;;;;;;49.67;8.32;;;28.40;73.60;;;;;;5026328;28;20064;-56
2023/08/15 11:49:24;;;;;;;36.63;8.20;;;28.50;73.40;;;;;;5024857;28;20478;-56
2023/08/15 11:51:50;;;;;;;39.05;7.18;;;28.50;73.00;;;;;;5026120;28;20026;-56
2023/08/15 11:54:15;;;;;;;29.20;6.65;;;28.60;72.60;;;;;;5009080;28;20064;-56
2023/08/15 11:56:51;;;;;;;33.17;7.07;;;28.70;72.40;;;;;;4992634;28;20025;-55
2023/08/15 11:59:20;;;;;;;45.13;6.85;;;28.70;72.20;;;;;;5024788;28;20022;-56
2023/08/15 12:01:46;;;;;;;39.80;7.10;;;28.80;71.90;;;;;;5026037;28;20057;-56
2023/08/15 12:04:13;;;;;;;28.83;6.05;;;28.80;71.10;;;;;;5024803;28;20090;-56
2023/08/15 12:06:39;;;;;;;26.52;5.95;;;28.80;69.20;;;;;;5008487;28;20037;-56
2023/08/15 12:09:06;;;;;;;24.05;5.57;;;28.90;70.40;;;;;;5025722;28;20045;-56
2023/08/15 12:11:33;;;;;;;23.38;4.78;;;28.90;69.70;;;;;;5007975;28;20053;-56
2023/08/15 12:13:59;;;;;;;35.17;5.20;;;28.90;68.10;;;;;;5018101;28;20026;-56
2023/08/15 12:16:24;;;;;;;23.42;4.72;;;28.90;68.00;;;;;;5017789;28;20125;-55
2023/08/15 12:18:50;;;;;;;23.23;4.80;;;29.00;67.40;;;;;;5019212;28;20034;-56
2023/08/15 12:21:16;;;;;;;22.38;5.18;;;29.10;66.70;;;;;;5002941;28;20041;-56
2023/08/15 12:23:41;;;;;;;35.42;5.82;;;29.20;66.60;;;;;;5019032;28;20026;-56
2023/08/15 12:26:07;;;;;;;33.00;5.45;;;29.30;66.10;;;;;;5016657;28;20037;-56
2023/08/15 12:28:32;;;;;;;25.38;4.25;;;29.40;66.10;;;;;;5017238;28;20124;-56
2023/08/15 12:30:58;;;;;;;27.42;6.30;;;29.50;66.00;;;;;;5016235;28;20406;-56
2023/08/15 12:33:23;;;;;;;42.50;7.43;;;29.50;65.20;;;;;;5016386;28;20092;-56